N577BF KPNS-KASH
Flight info
| Callsign | N577BF |
|---|---|
| Flight time | N/A |
| Altitude | 21000 |
| Route | CATLN Q22 TWOUP/N0271F230 Q22 FOXWD Q439 BOGRT |
| Aircraft | PC12/L-SDFGRWY/S |
Departure
| Time | N/A |
|---|---|
| Airport | Pensacola International Airport (KPNS) |
Arrival
| Time | 2026-04-30 21:01 |
|---|---|
| Airport | Nashua Airport / Boire Field (KASH) |
| Time | Latitude | Longitude | Altitude | Speed | Heading |
|---|---|---|---|---|---|
| 2026-04-30 17:39 | 32.13803 | -86.41388 | 20311 ft | 251 kts | 38° |
| 2026-04-30 17:41 | 32.22847 | -86.28476 | 20963 ft | 259 kts | 39° |
| 2026-04-30 17:42 | 32.25173 | -86.25154 | 20965 ft | 267 kts | 40° |
| 2026-04-30 17:42 | 32.28779 | -86.19986 | 20967 ft | 275 kts | 40° |
| 2026-04-30 17:43 | 32.31216 | -86.16489 | 20963 ft | 278 kts | 40° |
| 2026-04-30 17:44 | 32.34951 | -86.11122 | 20949 ft | 282 kts | 40° |
| 2026-04-30 17:44 | 32.38697 | -86.05734 | 20947 ft | 284 kts | 41° |
| 2026-04-30 17:46 | 32.45038 | -85.96597 | 20946 ft | 288 kts | 41° |
| 2026-04-30 17:47 | 32.50149 | -85.89215 | 20950 ft | 291 kts | 40° |
| 2026-04-30 17:48 | 32.55315 | -85.81742 | 20948 ft | 294 kts | 41° |
| 2026-04-30 17:48 | 32.59206 | -85.76100 | 20950 ft | 295 kts | 41° |
| 2026-04-30 17:49 | 32.64416 | -85.68535 | 20956 ft | 297 kts | 41° |
| 2026-04-30 17:50 | 32.69656 | -85.60910 | 20954 ft | 298 kts | 40° |
| 2026-04-30 17:51 | 32.73586 | -85.55177 | 20956 ft | 298 kts | 40° |
| 2026-04-30 17:52 | 32.77509 | -85.49451 | 20955 ft | 298 kts | 40° |
| 2026-04-30 17:53 | 32.84072 | -85.39848 | 20953 ft | 299 kts | 40° |
| 2026-04-30 17:54 | 32.89348 | -85.32111 | 20927 ft | 300 kts | 41° |
| 2026-04-30 17:55 | 32.94565 | -85.24442 | 20941 ft | 297 kts | 41° |
| 2026-04-30 17:56 | 32.99769 | -85.16782 | 20940 ft | 298 kts | 41° |
| 2026-04-30 17:57 | 33.03669 | -85.11028 | 20938 ft | 297 kts | 41° |
| 2026-04-30 17:58 | 33.07565 | -85.05271 | 20944 ft | 298 kts | 41° |
| 2026-04-30 17:59 | 33.12749 | -84.97595 | 20944 ft | 296 kts | 40° |
| 2026-04-30 18:00 | 33.17929 | -84.89912 | 20959 ft | 297 kts | 41° |
| 2026-04-30 18:00 | 33.21822 | -84.84127 | 20967 ft | 298 kts | 41° |
| 2026-04-30 18:01 | 33.24424 | -84.80255 | 20960 ft | 298 kts | 41° |
| 2026-04-30 18:02 | 33.28308 | -84.74464 | 20969 ft | 297 kts | 40° |
| 2026-04-30 18:02 | 33.32186 | -84.68678 | 20963 ft | 298 kts | 41° |
| 2026-04-30 18:03 | 33.36076 | -84.62864 | 20966 ft | 299 kts | 41° |
| 2026-04-30 18:04 | 33.39975 | -84.57026 | 20965 ft | 300 kts | 41° |
| 2026-04-30 18:05 | 33.45176 | -84.49226 | 20965 ft | 301 kts | 41° |
| 2026-04-30 18:06 | 33.50384 | -84.41396 | 20969 ft | 301 kts | 41° |
| 2026-04-30 18:07 | 33.55597 | -84.33540 | 20948 ft | 301 kts | 41° |
| 2026-04-30 18:08 | 33.59495 | -84.27655 | 20931 ft | 299 kts | 41° |
| 2026-04-30 18:09 | 33.64640 | -84.19876 | 20936 ft | 297 kts | 41° |
| 2026-04-30 18:10 | 33.69762 | -84.12114 | 20934 ft | 296 kts | 40° |
| 2026-04-30 18:11 | 33.74878 | -84.04344 | 20930 ft | 296 kts | 41° |
| 2026-04-30 18:11 | 33.78693 | -83.98541 | 20932 ft | 295 kts | 41° |
| 2026-04-30 18:12 | 33.82516 | -83.92714 | 20924 ft | 295 kts | 41° |
| 2026-04-30 18:13 | 33.85051 | -83.88844 | 20929 ft | 295 kts | 41° |
| 2026-04-30 18:13 | 33.88435 | -83.83674 | 20935 ft | 295 kts | 40° |
| 2026-04-30 18:14 | 33.91346 | -83.79131 | 20927 ft | 296 kts | 43° |
| 2026-04-30 18:15 | 33.95019 | -83.73125 | 20934 ft | 297 kts | 43° |
| 2026-04-30 18:15 | 33.98695 | -83.67133 | 20934 ft | 296 kts | 43° |
| 2026-04-30 18:16 | 34.01141 | -83.63148 | 20927 ft | 297 kts | 43° |
| 2026-04-30 18:16 | 34.03589 | -83.59156 | 20928 ft | 296 kts | 42° |
| 2026-04-30 18:17 | 34.04819 | -83.57150 | 20926 ft | 297 kts | 42° |
| 2026-04-30 18:17 | 34.06051 | -83.55140 | 20921 ft | 297 kts | 43° |
| 2026-04-30 18:17 | 34.08496 | -83.51147 | 20915 ft | 297 kts | 43° |
| 2026-04-30 18:18 | 34.09730 | -83.49130 | 20912 ft | 297 kts | 43° |
| 2026-04-30 18:18 | 34.10953 | -83.47131 | 20919 ft | 297 kts | 43° |
| 2026-04-30 18:18 | 34.12199 | -83.45091 | 20917 ft | 298 kts | 43° |
| 2026-04-30 18:18 | 34.13428 | -83.43079 | 20914 ft | 298 kts | 43° |
| 2026-04-30 18:19 | 34.14659 | -83.41061 | 20918 ft | 298 kts | 42° |
| 2026-04-30 18:19 | 34.15890 | -83.39044 | 20914 ft | 299 kts | 43° |
| 2026-04-30 18:19 | 34.17117 | -83.37033 | 20912 ft | 299 kts | 42° |
| 2026-04-30 18:19 | 34.18348 | -83.35013 | 20910 ft | 298 kts | 43° |
| 2026-04-30 18:20 | 34.19572 | -83.33002 | 20895 ft | 299 kts | 43° |
| 2026-04-30 18:20 | 34.20806 | -83.30973 | 20893 ft | 298 kts | 43° |
| 2026-04-30 18:20 | 34.22041 | -83.28944 | 20892 ft | 297 kts | 43° |
| 2026-04-30 18:20 | 34.23262 | -83.26935 | 20892 ft | 297 kts | 43° |
| 2026-04-30 18:21 | 34.24469 | -83.24948 | 20892 ft | 296 kts | 43° |
| 2026-04-30 18:21 | 34.25701 | -83.22922 | 20889 ft | 296 kts | 43° |
| 2026-04-30 18:21 | 34.26911 | -83.20929 | 20889 ft | 296 kts | 43° |
| 2026-04-30 18:21 | 34.28128 | -83.18920 | 20886 ft | 296 kts | 43° |
| 2026-04-30 18:22 | 34.29351 | -83.16907 | 20891 ft | 296 kts | 43° |
| 2026-04-30 18:22 | 34.31793 | -83.12875 | 20888 ft | 296 kts | 43° |
| 2026-04-30 18:22 | 34.33000 | -83.10883 | 20888 ft | 296 kts | 43° |
| 2026-04-30 18:23 | 34.34225 | -83.08858 | 20892 ft | 296 kts | 43° |
| 2026-04-30 18:23 | 34.35439 | -83.06847 | 20890 ft | 297 kts | 43° |
| 2026-04-30 18:23 | 34.36655 | -83.04836 | 20895 ft | 297 kts | 43° |
| 2026-04-30 18:23 | 34.37865 | -83.02833 | 20894 ft | 296 kts | 43° |
| 2026-04-30 18:24 | 34.40300 | -82.98798 | 20895 ft | 296 kts | 43° |
| 2026-04-30 18:24 | 34.41517 | -82.96783 | 20892 ft | 297 kts | 44° |
| 2026-04-30 18:24 | 34.42730 | -82.94765 | 20889 ft | 297 kts | 43° |
| 2026-04-30 18:25 | 34.43954 | -82.92734 | 20893 ft | 297 kts | 43° |
| 2026-04-30 18:25 | 34.46386 | -82.88696 | 20906 ft | 297 kts | 43° |
| 2026-04-30 18:25 | 34.47600 | -82.86676 | 20911 ft | 297 kts | 44° |
| 2026-04-30 18:26 | 34.50040 | -82.82614 | 20918 ft | 298 kts | 43° |
| 2026-04-30 18:26 | 34.51260 | -82.80582 | 20918 ft | 298 kts | 44° |
| 2026-04-30 18:26 | 34.52464 | -82.78574 | 20917 ft | 298 kts | 44° |
| 2026-04-30 18:27 | 34.54917 | -82.74481 | 20915 ft | 299 kts | 43° |
| 2026-04-30 18:27 | 34.56140 | -82.72439 | 20917 ft | 299 kts | 43° |
| 2026-04-30 18:28 | 34.58567 | -82.68382 | 20918 ft | 299 kts | 43° |
| 2026-04-30 18:28 | 34.59788 | -82.66338 | 20921 ft | 298 kts | 44° |
| 2026-04-30 18:28 | 34.62218 | -82.62270 | 20929 ft | 298 kts | 43° |
| 2026-04-30 18:29 | 34.63439 | -82.60225 | 20927 ft | 299 kts | 43° |
| 2026-04-30 18:29 | 34.67107 | -82.54072 | 20930 ft | 299 kts | 43° |
| 2026-04-30 18:30 | 34.69539 | -82.49986 | 20934 ft | 300 kts | 43° |
| 2026-04-30 18:30 | 34.71988 | -82.45866 | 20930 ft | 300 kts | 43° |
| 2026-04-30 18:31 | 34.73204 | -82.43820 | 20931 ft | 300 kts | 43° |
| 2026-04-30 18:31 | 34.75648 | -82.39702 | 20935 ft | 300 kts | 43° |
| 2026-04-30 18:32 | 34.78082 | -82.35598 | 20936 ft | 300 kts | 43° |
| 2026-04-30 18:32 | 34.79307 | -82.33529 | 20919 ft | 301 kts | 44° |
| 2026-04-30 18:32 | 34.81755 | -82.29391 | 20916 ft | 300 kts | 44° |
| 2026-04-30 18:33 | 34.82979 | -82.27320 | 20913 ft | 300 kts | 44° |
| 2026-04-30 18:33 | 34.85412 | -82.23200 | 20914 ft | 299 kts | 44° |
| 2026-04-30 18:33 | 34.86629 | -82.21140 | 20913 ft | 299 kts | 44° |
| 2026-04-30 18:34 | 34.87834 | -82.19098 | 20913 ft | 299 kts | 44° |
| 2026-04-30 18:34 | 34.90273 | -82.14957 | 20920 ft | 299 kts | 44° |
| 2026-04-30 18:34 | 34.91474 | -82.12920 | 20914 ft | 299 kts | 44° |
| 2026-04-30 18:35 | 34.92694 | -82.10849 | 20916 ft | 300 kts | 44° |
| 2026-04-30 18:35 | 34.93909 | -82.08783 | 20919 ft | 300 kts | 44° |
| 2026-04-30 18:35 | 34.95126 | -82.06714 | 20916 ft | 300 kts | 43° |
| 2026-04-30 18:36 | 34.97549 | -82.02584 | 20917 ft | 299 kts | 44° |
| 2026-04-30 18:36 | 34.98745 | -82.00548 | 20916 ft | 299 kts | 44° |
| 2026-04-30 18:36 | 35.01172 | -81.96408 | 20915 ft | 300 kts | 44° |
| 2026-04-30 18:37 | 35.02383 | -81.94340 | 20920 ft | 300 kts | 44° |
| 2026-04-30 18:37 | 35.03592 | -81.92278 | 20928 ft | 300 kts | 44° |
| 2026-04-30 18:37 | 35.04839 | -81.90218 | 20920 ft | 299 kts | 42° |
| 2026-04-30 18:37 | 35.06108 | -81.88194 | 20917 ft | 299 kts | 42° |
| 2026-04-30 18:38 | 35.07362 | -81.86192 | 20911 ft | 299 kts | 42° |
| 2026-04-30 18:38 | 35.08621 | -81.84177 | 20923 ft | 299 kts | 42° |
| 2026-04-30 18:38 | 35.09881 | -81.82156 | 20912 ft | 299 kts | 42° |
| 2026-04-30 18:38 | 35.11153 | -81.80107 | 20921 ft | 299 kts | 42° |
| 2026-04-30 18:39 | 35.12391 | -81.78114 | 20914 ft | 300 kts | 43° |
| 2026-04-30 18:39 | 35.13666 | -81.76057 | 20917 ft | 300 kts | 43° |
| 2026-04-30 18:39 | 35.14931 | -81.74014 | 20924 ft | 300 kts | 43° |
| 2026-04-30 18:39 | 35.16184 | -81.71988 | 20913 ft | 300 kts | 42° |
| 2026-04-30 18:40 | 35.17454 | -81.69936 | 20914 ft | 299 kts | 42° |
| 2026-04-30 18:40 | 35.18697 | -81.67921 | 20921 ft | 299 kts | 42° |
| 2026-04-30 18:40 | 35.19953 | -81.65886 | 20927 ft | 299 kts | 43° |
| 2026-04-30 18:40 | 35.21214 | -81.63844 | 20923 ft | 299 kts | 41° |
| 2026-04-30 18:41 | 35.22463 | -81.61817 | 20926 ft | 299 kts | 42° |
| 2026-04-30 18:41 | 35.23721 | -81.59776 | 20926 ft | 300 kts | 43° |
| 2026-04-30 18:41 | 35.24975 | -81.57741 | 20936 ft | 300 kts | 42° |
| 2026-04-30 18:41 | 35.26231 | -81.55701 | 20927 ft | 300 kts | 42° |
| 2026-04-30 18:42 | 35.27477 | -81.53674 | 20924 ft | 300 kts | 42° |
| 2026-04-30 18:42 | 35.29978 | -81.49604 | 20931 ft | 300 kts | 43° |
| 2026-04-30 18:42 | 35.31236 | -81.47555 | 20936 ft | 300 kts | 42° |
| 2026-04-30 18:45 | 35.43743 | -81.27118 | 20932 ft | 297 kts | 43° |
| 2026-04-30 18:45 | 35.44985 | -81.25084 | 20922 ft | 297 kts | 43° |
| 2026-04-30 18:45 | 35.46229 | -81.23043 | 20923 ft | 297 kts | 43° |
| 2026-04-30 18:46 | 35.47472 | -81.21006 | 20929 ft | 297 kts | 43° |
| 2026-04-30 18:46 | 35.48697 | -81.18986 | 21139 ft | 288 kts | 42° |
| 2026-04-30 18:46 | 35.49851 | -81.17073 | 21481 ft | 276 kts | 42° |
| 2026-04-30 18:46 | 35.50981 | -81.15205 | 21838 ft | 265 kts | 41° |
| 2026-04-30 18:47 | 35.52064 | -81.13422 | 22132 ft | 259 kts | 40° |
| 2026-04-30 18:47 | 35.53156 | -81.11639 | 22264 ft | 262 kts | 40° |
| 2026-04-30 18:47 | 35.54247 | -81.09855 | 22421 ft | 263 kts | 40° |
| 2026-04-30 18:47 | 35.55353 | -81.08041 | 22577 ft | 263 kts | 40° |
| 2026-04-30 18:48 | 35.56446 | -81.06239 | 22733 ft | 264 kts | 40° |
| 2026-04-30 18:48 | 35.57541 | -81.04439 | 22845 ft | 267 kts | 39° |
| 2026-04-30 18:48 | 35.58655 | -81.02607 | 22916 ft | 271 kts | 40° |
| 2026-04-30 18:48 | 35.59805 | -81.00717 | 22920 ft | 277 kts | 40° |
| 2026-04-30 18:49 | 35.60982 | -80.98778 | 22919 ft | 283 kts | 40° |
| 2026-04-30 18:49 | 35.62157 | -80.96838 | 22924 ft | 287 kts | 40° |
| 2026-04-30 18:49 | 35.63374 | -80.94826 | 22917 ft | 291 kts | 41° |
| 2026-04-30 18:49 | 35.64587 | -80.92818 | 22926 ft | 293 kts | 41° |
| 2026-04-30 18:50 | 35.65811 | -80.90791 | 22913 ft | 296 kts | 41° |
| 2026-04-30 18:50 | 35.67037 | -80.88757 | 22916 ft | 297 kts | 42° |
| 2026-04-30 18:50 | 35.68270 | -80.86712 | 22919 ft | 299 kts | 41° |
| 2026-04-30 18:50 | 35.69523 | -80.84634 | 22912 ft | 301 kts | 42° |
| 2026-04-30 18:51 | 35.70767 | -80.82568 | 22909 ft | 301 kts | 42° |
| 2026-04-30 18:51 | 35.72007 | -80.80505 | 22907 ft | 302 kts | 42° |
| 2026-04-30 18:51 | 35.73269 | -80.78406 | 22913 ft | 302 kts | 41° |
| 2026-04-30 18:51 | 35.74517 | -80.76332 | 22912 ft | 303 kts | 43° |
| 2026-04-30 18:52 | 35.75790 | -80.74216 | 22910 ft | 303 kts | 42° |
| 2026-04-30 18:52 | 35.77036 | -80.72141 | 22905 ft | 304 kts | 42° |
| 2026-04-30 18:52 | 35.78297 | -80.70040 | 22899 ft | 304 kts | 41° |
| 2026-04-30 18:52 | 35.79561 | -80.67934 | 22904 ft | 304 kts | 42° |
| 2026-04-30 18:53 | 35.80823 | -80.65829 | 22900 ft | 304 kts | 41° |
| 2026-04-30 18:53 | 35.82083 | -80.63727 | 22900 ft | 304 kts | 42° |
| 2026-04-30 18:53 | 35.83334 | -80.61636 | 22902 ft | 304 kts | 41° |
| 2026-04-30 18:53 | 35.84606 | -80.59514 | 22899 ft | 304 kts | 42° |
| 2026-04-30 18:54 | 35.85851 | -80.57432 | 22901 ft | 304 kts | 42° |
| 2026-04-30 18:54 | 35.87103 | -80.55338 | 22899 ft | 304 kts | 42° |
| 2026-04-30 18:54 | 35.88357 | -80.53239 | 22901 ft | 305 kts | 42° |
| 2026-04-30 18:54 | 35.89630 | -80.51109 | 22904 ft | 304 kts | 42° |
| 2026-04-30 18:55 | 35.90882 | -80.49010 | 22909 ft | 304 kts | 42° |
| 2026-04-30 18:55 | 35.93401 | -80.44785 | 22908 ft | 304 kts | 42° |
| 2026-04-30 18:55 | 35.94647 | -80.42694 | 22907 ft | 304 kts | 42° |
| 2026-04-30 18:56 | 35.97163 | -80.38470 | 22910 ft | 304 kts | 43° |
| 2026-04-30 18:56 | 35.98425 | -80.36350 | 22906 ft | 304 kts | 42° |
| 2026-04-30 18:56 | 35.99674 | -80.34256 | 22900 ft | 304 kts | 43° |
| 2026-04-30 18:57 | 36.02190 | -80.30035 | 22902 ft | 304 kts | 43° |
| 2026-04-30 18:57 | 36.03450 | -80.27917 | 22899 ft | 303 kts | 43° |
| 2026-04-30 18:57 | 36.04688 | -80.25836 | 22900 ft | 303 kts | 43° |
| 2026-04-30 18:58 | 36.07177 | -80.21648 | 22894 ft | 302 kts | 43° |
| 2026-04-30 18:58 | 36.08427 | -80.19542 | 22893 ft | 302 kts | 42° |
| 2026-04-30 18:58 | 36.09676 | -80.17438 | 22895 ft | 302 kts | 43° |
| 2026-04-30 18:59 | 36.12168 | -80.13204 | 22872 ft | 302 kts | 43° |
| 2026-04-30 19:00 | 36.15888 | -80.06951 | 22892 ft | 300 kts | 43° |
| 2026-04-30 19:00 | 36.17130 | -80.04851 | 22897 ft | 301 kts | 43° |
| 2026-04-30 19:00 | 36.19607 | -80.00658 | 22901 ft | 301 kts | 43° |
| 2026-04-30 19:01 | 36.22095 | -79.96443 | 22902 ft | 302 kts | 43° |
| 2026-04-30 19:01 | 36.23334 | -79.94341 | 22894 ft | 302 kts | 43° |
| 2026-04-30 19:02 | 36.25826 | -79.90111 | 22906 ft | 302 kts | 43° |
| 2026-04-30 19:02 | 36.28295 | -79.85912 | 22901 ft | 302 kts | 43° |
| 2026-04-30 19:03 | 36.30785 | -79.81677 | 22891 ft | 302 kts | 43° |
| 2026-04-30 19:03 | 36.33266 | -79.77447 | 22903 ft | 303 kts | 43° |
| 2026-04-30 19:04 | 36.35756 | -79.73200 | 22903 ft | 303 kts | 44° |
| 2026-04-30 19:04 | 36.38247 | -79.68945 | 22904 ft | 304 kts | 44° |
| 2026-04-30 19:05 | 36.40733 | -79.64693 | 22897 ft | 304 kts | 44° |
| 2026-04-30 19:05 | 36.43227 | -79.60423 | 22894 ft | 304 kts | 44° |
| 2026-04-30 19:06 | 36.45696 | -79.56190 | 22897 ft | 304 kts | 44° |
| 2026-04-30 19:06 | 36.46950 | -79.54035 | 22899 ft | 304 kts | 44° |
| 2026-04-30 19:06 | 36.49423 | -79.49788 | 22902 ft | 304 kts | 45° |
| 2026-04-30 19:07 | 36.51915 | -79.45502 | 22902 ft | 305 kts | 44° |
| 2026-04-30 19:07 | 36.53159 | -79.43361 | 22898 ft | 305 kts | 44° |
| 2026-04-30 19:08 | 36.55656 | -79.39057 | 22902 ft | 305 kts | 45° |
| 2026-04-30 19:08 | 36.58151 | -79.34750 | 22903 ft | 305 kts | 45° |
| 2026-04-30 19:08 | 36.59388 | -79.32613 | 22885 ft | 305 kts | 45° |
| 2026-04-30 19:09 | 36.61870 | -79.28321 | 22886 ft | 304 kts | 45° |
| 2026-04-30 19:09 | 36.63103 | -79.26186 | 22886 ft | 303 kts | 45° |
| 2026-04-30 19:09 | 36.64339 | -79.24046 | 22886 ft | 303 kts | 45° |
| 2026-04-30 19:10 | 36.66792 | -79.19796 | 22880 ft | 303 kts | 45° |
| 2026-04-30 19:10 | 36.69242 | -79.15545 | 22881 ft | 303 kts | 45° |
| 2026-04-30 19:11 | 36.70472 | -79.13408 | 22881 ft | 303 kts | 46° |
| 2026-04-30 19:11 | 36.72928 | -79.09139 | 22877 ft | 304 kts | 45° |
| 2026-04-30 19:11 | 36.74158 | -79.06999 | 22875 ft | 304 kts | 45° |
| 2026-04-30 19:12 | 36.75391 | -79.04851 | 22878 ft | 304 kts | 46° |
| 2026-04-30 19:12 | 36.76609 | -79.02730 | 22884 ft | 303 kts | 46° |
| 2026-04-30 19:12 | 36.77840 | -79.00582 | 22885 ft | 303 kts | 46° |
| 2026-04-30 19:13 | 36.80297 | -78.96294 | 22894 ft | 303 kts | 46° |
| 2026-04-30 19:13 | 36.82741 | -78.92024 | 22897 ft | 304 kts | 46° |
| 2026-04-30 19:13 | 36.83966 | -78.89869 | 22890 ft | 304 kts | 47° |
| 2026-04-30 19:14 | 36.85186 | -78.87717 | 22891 ft | 304 kts | 47° |
| 2026-04-30 19:14 | 36.86411 | -78.85555 | 22891 ft | 304 kts | 47° |
| 2026-04-30 19:14 | 36.87619 | -78.83422 | 22892 ft | 304 kts | 46° |
| 2026-04-30 19:14 | 36.88849 | -78.81249 | 22891 ft | 304 kts | 46° |
| 2026-04-30 19:15 | 36.90068 | -78.79093 | 22888 ft | 304 kts | 46° |
| 2026-04-30 19:15 | 36.92508 | -78.74778 | 22889 ft | 305 kts | 47° |
| 2026-04-30 19:15 | 36.93739 | -78.72598 | 22890 ft | 305 kts | 47° |
| 2026-04-30 19:16 | 36.94953 | -78.70448 | 22891 ft | 305 kts | 47° |
| 2026-04-30 19:16 | 36.96178 | -78.68276 | 22889 ft | 305 kts | 46° |
| 2026-04-30 19:16 | 36.98631 | -78.63923 | 22893 ft | 306 kts | 47° |
| 2026-04-30 19:17 | 36.99856 | -78.61746 | 22888 ft | 306 kts | 47° |
| 2026-04-30 19:17 | 37.02299 | -78.57404 | 22891 ft | 306 kts | 47° |
| 2026-04-30 19:17 | 37.03531 | -78.55212 | 22890 ft | 306 kts | 47° |
| 2026-04-30 19:18 | 37.05568 | -78.51583 | 22882 ft | 307 kts | 47° |
| 2026-04-30 19:18 | 37.07208 | -78.48658 | 22887 ft | 307 kts | 47° |
| 2026-04-30 19:18 | 37.08431 | -78.46475 | 22880 ft | 307 kts | 47° |
| 2026-04-30 19:19 | 37.09652 | -78.44296 | 22886 ft | 307 kts | 47° |
| 2026-04-30 19:19 | 37.10888 | -78.42087 | 22881 ft | 307 kts | 47° |
| 2026-04-30 19:19 | 37.13342 | -78.37698 | 22880 ft | 307 kts | 47° |
| 2026-04-30 19:20 | 37.14377 | -78.35844 | 22877 ft | 307 kts | 47° |
| 2026-04-30 19:20 | 37.15188 | -78.34392 | 22874 ft | 307 kts | 48° |
| 2026-04-30 19:20 | 37.17642 | -78.29992 | 22866 ft | 306 kts | 48° |
| 2026-04-30 19:21 | 37.18860 | -78.27807 | 22859 ft | 305 kts | 48° |
| 2026-04-30 19:21 | 37.21091 | -78.23292 | 22861 ft | 307 kts | 55° |
| 2026-04-30 19:22 | 37.23186 | -78.18611 | 22861 ft | 306 kts | 55° |
| 2026-04-30 19:22 | 37.26300 | -78.11613 | 22848 ft | 306 kts | 56° |
| 2026-04-30 19:23 | 37.29409 | -78.04598 | 22844 ft | 307 kts | 56° |
| 2026-04-30 19:24 | 37.31477 | -77.99925 | 22847 ft | 307 kts | 56° |
| 2026-04-30 19:24 | 37.32500 | -77.97610 | 22851 ft | 307 kts | 55° |
| 2026-04-30 19:24 | 37.34586 | -77.92885 | 22840 ft | 307 kts | 55° |
| 2026-04-30 19:25 | 37.37686 | -77.85849 | 22849 ft | 308 kts | 56° |
| 2026-04-30 19:26 | 37.39752 | -77.81151 | 22852 ft | 308 kts | 56° |
| 2026-04-30 19:26 | 37.41830 | -77.76418 | 22848 ft | 308 kts | 56° |
| 2026-04-30 19:26 | 37.42863 | -77.74062 | 22853 ft | 308 kts | 56° |
| 2026-04-30 19:27 | 37.44924 | -77.69360 | 22865 ft | 308 kts | 56° |
| 2026-04-30 19:27 | 37.47003 | -77.64610 | 22859 ft | 309 kts | 55° |
| 2026-04-30 19:28 | 37.48033 | -77.62251 | 22860 ft | 309 kts | 55° |
| 2026-04-30 19:28 | 37.50104 | -77.57507 | 22862 ft | 309 kts | 56° |
| 2026-04-30 19:29 | 37.52185 | -77.52735 | 22864 ft | 309 kts | 56° |
| 2026-04-30 19:29 | 37.53214 | -77.50373 | 22862 ft | 309 kts | 56° |
| 2026-04-30 19:30 | 37.56313 | -77.43247 | 22868 ft | 309 kts | 56° |
| 2026-04-30 19:30 | 37.58384 | -77.38473 | 22865 ft | 309 kts | 56° |
| 2026-04-30 19:31 | 37.60440 | -77.33730 | 22852 ft | 309 kts | 57° |
| 2026-04-30 19:31 | 37.61469 | -77.31351 | 22851 ft | 309 kts | 57° |
| 2026-04-30 19:31 | 37.63525 | -77.26596 | 22851 ft | 308 kts | 57° |
| 2026-04-30 19:32 | 37.64552 | -77.24216 | 22852 ft | 308 kts | 57° |
| 2026-04-30 19:32 | 37.65569 | -77.21860 | 22853 ft | 308 kts | 57° |
| 2026-04-30 19:32 | 37.66592 | -77.19487 | 22851 ft | 307 kts | 57° |
| 2026-04-30 19:32 | 37.67614 | -77.17117 | 22847 ft | 308 kts | 57° |
| 2026-04-30 19:33 | 37.68627 | -77.14766 | 22849 ft | 307 kts | 57° |
| 2026-04-30 19:33 | 37.69915 | -77.12666 | 22862 ft | 294 kts | 32° |
| 2026-04-30 19:33 | 37.71566 | -77.11195 | 22851 ft | 286 kts | 21° |
| 2026-04-30 19:33 | 37.73293 | -77.09994 | 22847 ft | 283 kts | 16° |
| 2026-04-30 19:34 | 37.75070 | -77.08877 | 22844 ft | 282 kts | 14° |
| 2026-04-30 19:34 | 37.76833 | -77.07795 | 22836 ft | 283 kts | 15° |
| 2026-04-30 19:34 | 37.80359 | -77.05499 | 22837 ft | 284 kts | 17° |
| 2026-04-30 19:35 | 37.82108 | -77.04326 | 22840 ft | 284 kts | 17° |
| 2026-04-30 19:35 | 37.83876 | -77.03126 | 22838 ft | 285 kts | 18° |
| 2026-04-30 19:35 | 37.85612 | -77.01939 | 22841 ft | 285 kts | 18° |
| 2026-04-30 19:35 | 37.87362 | -77.00736 | 22841 ft | 285 kts | 18° |
| 2026-04-30 19:36 | 37.89090 | -76.99545 | 22837 ft | 285 kts | 18° |
| 2026-04-30 19:36 | 37.90842 | -76.98332 | 22837 ft | 285 kts | 18° |
| 2026-04-30 19:36 | 37.94340 | -76.95908 | 22839 ft | 286 kts | 19° |
| 2026-04-30 19:37 | 37.96071 | -76.94706 | 22839 ft | 285 kts | 19° |
| 2026-04-30 19:37 | 37.97827 | -76.93485 | 22842 ft | 285 kts | 18° |
| 2026-04-30 19:37 | 37.99553 | -76.92284 | 22844 ft | 284 kts | 19° |
| 2026-04-30 19:37 | 38.01294 | -76.91071 | 22852 ft | 284 kts | 19° |
| 2026-04-30 19:38 | 38.03033 | -76.89860 | 22853 ft | 284 kts | 19° |
| 2026-04-30 19:38 | 38.04766 | -76.88652 | 22853 ft | 284 kts | 18° |
| 2026-04-30 19:38 | 38.06504 | -76.87440 | 22852 ft | 285 kts | 19° |
| 2026-04-30 19:38 | 38.08242 | -76.86227 | 22849 ft | 285 kts | 19° |
| 2026-04-30 19:39 | 38.09995 | -76.85004 | 22844 ft | 285 kts | 18° |
| 2026-04-30 19:39 | 38.11673 | -76.83831 | 22850 ft | 285 kts | 19° |
| 2026-04-30 19:39 | 38.12690 | -76.83120 | 22846 ft | 285 kts | 19° |
| 2026-04-30 19:39 | 38.14278 | -76.82010 | 22847 ft | 285 kts | 19° |
| 2026-04-30 19:40 | 38.16025 | -76.80787 | 22846 ft | 285 kts | 19° |
| 2026-04-30 19:40 | 38.17776 | -76.79561 | 22850 ft | 285 kts | 19° |
| 2026-04-30 19:40 | 38.19508 | -76.78348 | 22847 ft | 285 kts | 19° |
| 2026-04-30 19:40 | 38.21251 | -76.77127 | 22851 ft | 285 kts | 18° |
| 2026-04-30 19:41 | 38.22986 | -76.75911 | 22848 ft | 285 kts | 18° |
| 2026-04-30 19:41 | 38.24688 | -76.74595 | 22838 ft | 293 kts | 30° |
| 2026-04-30 19:41 | 38.26226 | -76.72913 | 22852 ft | 293 kts | 31° |
| 2026-04-30 19:41 | 38.27823 | -76.71223 | 22847 ft | 294 kts | 31° |
| 2026-04-30 19:42 | 38.29398 | -76.69551 | 22848 ft | 294 kts | 31° |
| 2026-04-30 19:42 | 38.30980 | -76.67861 | 22848 ft | 295 kts | 32° |
| 2026-04-30 19:42 | 38.32549 | -76.66178 | 22850 ft | 295 kts | 32° |
| 2026-04-30 19:42 | 38.34116 | -76.64491 | 22850 ft | 295 kts | 32° |
| 2026-04-30 19:43 | 38.35683 | -76.62801 | 22848 ft | 295 kts | 32° |
| 2026-04-30 19:43 | 38.37268 | -76.61089 | 22851 ft | 295 kts | 32° |
| 2026-04-30 19:43 | 38.38824 | -76.59405 | 22851 ft | 296 kts | 32° |
| 2026-04-30 19:44 | 38.41958 | -76.56011 | 22853 ft | 296 kts | 32° |
| 2026-04-30 19:44 | 38.43534 | -76.54312 | 22851 ft | 295 kts | 32° |
| 2026-04-30 19:44 | 38.45121 | -76.52611 | 22848 ft | 296 kts | 31° |
| 2026-04-30 19:44 | 38.46678 | -76.50943 | 22854 ft | 296 kts | 32° |
| 2026-04-30 19:45 | 38.48260 | -76.49247 | 22854 ft | 296 kts | 32° |
| 2026-04-30 19:45 | 38.49830 | -76.47562 | 22850 ft | 296 kts | 31° |
| 2026-04-30 19:45 | 38.51420 | -76.45855 | 22850 ft | 296 kts | 32° |
| 2026-04-30 19:45 | 38.52984 | -76.44175 | 22852 ft | 296 kts | 32° |
| 2026-04-30 19:46 | 38.54578 | -76.42460 | 22849 ft | 297 kts | 32° |
| 2026-04-30 19:46 | 38.56146 | -76.40773 | 22847 ft | 297 kts | 32° |
| 2026-04-30 19:46 | 38.57724 | -76.39073 | 22851 ft | 297 kts | 32° |
| 2026-04-30 19:46 | 38.59301 | -76.37374 | 22848 ft | 297 kts | 32° |
| 2026-04-30 19:47 | 38.60878 | -76.35673 | 22856 ft | 297 kts | 32° |
| 2026-04-30 19:47 | 38.61921 | -76.34548 | 22852 ft | 297 kts | 32° |
| 2026-04-30 19:47 | 38.64055 | -76.32245 | 22850 ft | 297 kts | 32° |
| 2026-04-30 19:47 | 38.65617 | -76.30557 | 22841 ft | 297 kts | 32° |
| 2026-04-30 19:48 | 38.67195 | -76.28850 | 22840 ft | 297 kts | 32° |
| 2026-04-30 19:48 | 38.68774 | -76.27142 | 22841 ft | 296 kts | 33° |
| 2026-04-30 19:48 | 38.70351 | -76.25435 | 22850 ft | 296 kts | 32° |
| 2026-04-30 19:48 | 38.71930 | -76.23727 | 22846 ft | 296 kts | 32° |
| 2026-04-30 19:49 | 38.73506 | -76.22018 | 22843 ft | 296 kts | 32° |
| 2026-04-30 19:49 | 38.76655 | -76.18603 | 22844 ft | 297 kts | 32° |
| 2026-04-30 19:49 | 38.78229 | -76.16894 | 22850 ft | 297 kts | 32° |
| 2026-04-30 19:50 | 38.79796 | -76.15195 | 22838 ft | 297 kts | 32° |
| 2026-04-30 19:50 | 38.81385 | -76.13466 | 22840 ft | 297 kts | 32° |
| 2026-04-30 19:50 | 38.82951 | -76.11763 | 22839 ft | 297 kts | 33° |
| 2026-04-30 19:50 | 38.84539 | -76.10035 | 22836 ft | 298 kts | 33° |
| 2026-04-30 19:51 | 38.86121 | -76.08312 | 22834 ft | 298 kts | 33° |
| 2026-04-30 19:51 | 38.87695 | -76.06597 | 22836 ft | 298 kts | 33° |
| 2026-04-30 19:51 | 38.89278 | -76.04871 | 22835 ft | 297 kts | 33° |
| 2026-04-30 19:51 | 38.90849 | -76.03157 | 22836 ft | 298 kts | 33° |
| 2026-04-30 19:52 | 38.92434 | -76.01427 | 22832 ft | 298 kts | 33° |
| 2026-04-30 19:52 | 38.93998 | -75.99720 | 22834 ft | 298 kts | 33° |
| 2026-04-30 19:52 | 38.95581 | -75.97990 | 22837 ft | 298 kts | 33° |
| 2026-04-30 19:52 | 38.97161 | -75.96233 | 22834 ft | 299 kts | 34° |
| 2026-04-30 19:53 | 38.98700 | -75.94424 | 22831 ft | 300 kts | 36° |
| 2026-04-30 19:53 | 39.00222 | -75.92587 | 22837 ft | 300 kts | 36° |
| 2026-04-30 19:53 | 39.01752 | -75.90745 | 22830 ft | 301 kts | 36° |
| 2026-04-30 19:53 | 39.03271 | -75.88921 | 22829 ft | 301 kts | 36° |
| 2026-04-30 19:54 | 39.04792 | -75.87098 | 22834 ft | 300 kts | 36° |
| 2026-04-30 19:54 | 39.06332 | -75.85255 | 22830 ft | 301 kts | 36° |
| 2026-04-30 19:54 | 39.07862 | -75.83426 | 22831 ft | 301 kts | 36° |
| 2026-04-30 19:54 | 39.09409 | -75.81577 | 22830 ft | 302 kts | 36° |
| 2026-04-30 19:55 | 39.10952 | -75.79733 | 22830 ft | 302 kts | 36° |
| 2026-04-30 19:55 | 39.12492 | -75.77891 | 22827 ft | 302 kts | 35° |
| 2026-04-30 19:55 | 39.14035 | -75.76046 | 22826 ft | 302 kts | 36° |
| 2026-04-30 19:55 | 39.15568 | -75.74212 | 22825 ft | 302 kts | 36° |
| 2026-04-30 19:56 | 39.17117 | -75.72358 | 22827 ft | 302 kts | 36° |
| 2026-04-30 19:56 | 39.18666 | -75.70503 | 22825 ft | 302 kts | 36° |
| 2026-04-30 19:56 | 39.20198 | -75.68666 | 22829 ft | 302 kts | 36° |
| 2026-04-30 19:56 | 39.21738 | -75.66819 | 22826 ft | 302 kts | 35° |
| 2026-04-30 19:57 | 39.23298 | -75.64947 | 22821 ft | 302 kts | 36° |
| 2026-04-30 19:57 | 39.24837 | -75.63098 | 22831 ft | 302 kts | 36° |
| 2026-04-30 19:57 | 39.25944 | -75.61769 | 22828 ft | 303 kts | 36° |
| 2026-04-30 19:57 | 39.26992 | -75.60509 | 22824 ft | 303 kts | 36° |
| 2026-04-30 19:58 | 39.28529 | -75.58662 | 22826 ft | 303 kts | 36° |
| 2026-04-30 19:58 | 39.30082 | -75.56792 | 22826 ft | 303 kts | 36° |
| 2026-04-30 19:58 | 39.31611 | -75.54951 | 22821 ft | 303 kts | 36° |
| 2026-04-30 19:58 | 39.33158 | -75.53087 | 22831 ft | 303 kts | 36° |
| 2026-04-30 19:59 | 39.34699 | -75.51229 | 22828 ft | 303 kts | 36° |
| 2026-04-30 19:59 | 39.36235 | -75.49376 | 22825 ft | 303 kts | 36° |
| 2026-04-30 19:59 | 39.39325 | -75.45645 | 22825 ft | 304 kts | 36° |
| 2026-04-30 20:00 | 39.40853 | -75.43798 | 22822 ft | 304 kts | 36° |
| 2026-04-30 20:00 | 39.42400 | -75.41927 | 22826 ft | 304 kts | 36° |
| 2026-04-30 20:00 | 39.43942 | -75.40061 | 22826 ft | 304 kts | 36° |
| 2026-04-30 20:00 | 39.45483 | -75.38195 | 22823 ft | 304 kts | 36° |
| 2026-04-30 20:01 | 39.48533 | -75.34498 | 22826 ft | 304 kts | 37° |
| 2026-04-30 20:01 | 39.50064 | -75.32639 | 22816 ft | 304 kts | 37° |
| 2026-04-30 20:01 | 39.51613 | -75.30759 | 22814 ft | 303 kts | 37° |
| 2026-04-30 20:02 | 39.54610 | -75.27116 | 22825 ft | 303 kts | 37° |
| 2026-04-30 20:02 | 39.56158 | -75.25235 | 22816 ft | 303 kts | 37° |
| 2026-04-30 20:03 | 39.59224 | -75.21503 | 22818 ft | 303 kts | 37° |
| 2026-04-30 20:03 | 39.60760 | -75.19629 | 22821 ft | 303 kts | 37° |
| 2026-04-30 20:03 | 39.62304 | -75.17748 | 22817 ft | 303 kts | 37° |
| 2026-04-30 20:03 | 39.63834 | -75.15880 | 22823 ft | 303 kts | 37° |
| 2026-04-30 20:04 | 39.65367 | -75.14008 | 22824 ft | 303 kts | 37° |
| 2026-04-30 20:04 | 39.66904 | -75.12130 | 22826 ft | 303 kts | 37° |
| 2026-04-30 20:04 | 39.68450 | -75.10255 | 22820 ft | 303 kts | 36° |
| 2026-04-30 20:05 | 39.71628 | -75.06670 | 22817 ft | 303 kts | 34° |
| 2026-04-30 20:05 | 39.73241 | -75.04885 | 22816 ft | 303 kts | 34° |
| 2026-04-30 20:05 | 39.76423 | -75.01337 | 22808 ft | 303 kts | 34° |
| 2026-04-30 20:06 | 39.78030 | -74.99536 | 22811 ft | 303 kts | 34° |
| 2026-04-30 20:06 | 39.79610 | -74.97762 | 22816 ft | 303 kts | 34° |
| 2026-04-30 20:06 | 39.81219 | -74.95947 | 22814 ft | 303 kts | 34° |
| 2026-04-30 20:06 | 39.82801 | -74.94161 | 22817 ft | 302 kts | 34° |
| 2026-04-30 20:07 | 39.84396 | -74.92358 | 22819 ft | 303 kts | 34° |
| 2026-04-30 20:07 | 39.85984 | -74.90562 | 22817 ft | 303 kts | 34° |
| 2026-04-30 20:07 | 39.89167 | -74.86957 | 22819 ft | 303 kts | 34° |
| 2026-04-30 20:08 | 39.90791 | -74.85205 | 22823 ft | 301 kts | 30° |
| 2026-04-30 20:08 | 39.92496 | -74.83594 | 22824 ft | 300 kts | 27° |
| 2026-04-30 20:08 | 39.94230 | -74.82043 | 22818 ft | 300 kts | 27° |
| 2026-04-30 20:08 | 39.95954 | -74.80493 | 22818 ft | 301 kts | 27° |
| 2026-04-30 20:09 | 39.97692 | -74.78916 | 22820 ft | 302 kts | 27° |
| 2026-04-30 20:09 | 39.99422 | -74.77338 | 22821 ft | 302 kts | 27° |
| 2026-04-30 20:09 | 40.02864 | -74.74179 | 22831 ft | 302 kts | 28° |
| 2026-04-30 20:10 | 40.06032 | -74.70489 | 22830 ft | 308 kts | 43° |
| 2026-04-30 20:10 | 40.07457 | -74.68389 | 22831 ft | 309 kts | 44° |
| 2026-04-30 20:10 | 40.08841 | -74.66260 | 22831 ft | 309 kts | 45° |
| 2026-04-30 20:11 | 40.11559 | -74.62170 | 22829 ft | 308 kts | 44° |
| 2026-04-30 20:11 | 40.12964 | -74.60099 | 22833 ft | 307 kts | 43° |
| 2026-04-30 20:11 | 40.14399 | -74.57998 | 22831 ft | 307 kts | 43° |
| 2026-04-30 20:12 | 40.17246 | -74.53855 | 22830 ft | 307 kts | 43° |
| 2026-04-30 20:12 | 40.18670 | -74.51792 | 22826 ft | 307 kts | 43° |
| 2026-04-30 20:12 | 40.20172 | -74.49787 | 22833 ft | 305 kts | 38° |
| 2026-04-30 20:13 | 40.21742 | -74.47940 | 22831 ft | 304 kts | 34° |
| 2026-04-30 20:13 | 40.23373 | -74.46202 | 22834 ft | 303 kts | 32° |
| 2026-04-30 20:13 | 40.25019 | -74.44442 | 22823 ft | 304 kts | 33° |
| 2026-04-30 20:13 | 40.26655 | -74.42683 | 22829 ft | 304 kts | 33° |
| 2026-04-30 20:14 | 40.28299 | -74.40919 | 22825 ft | 304 kts | 33° |
| 2026-04-30 20:14 | 40.29935 | -74.39166 | 22822 ft | 304 kts | 33° |
| 2026-04-30 20:14 | 40.31586 | -74.37398 | 22821 ft | 304 kts | 33° |
| 2026-04-30 20:14 | 40.33231 | -74.35635 | 22821 ft | 304 kts | 32° |
| 2026-04-30 20:15 | 40.34879 | -74.33868 | 22806 ft | 304 kts | 33° |
| 2026-04-30 20:15 | 40.36536 | -74.32091 | 22802 ft | 303 kts | 33° |
| 2026-04-30 20:15 | 40.38156 | -74.30353 | 22807 ft | 303 kts | 33° |
| 2026-04-30 20:15 | 40.39790 | -74.28598 | 22809 ft | 302 kts | 33° |
| 2026-04-30 20:16 | 40.41422 | -74.26845 | 22806 ft | 302 kts | 34° |
| 2026-04-30 20:16 | 40.43048 | -74.25098 | 22804 ft | 302 kts | 33° |
| 2026-04-30 20:16 | 40.44690 | -74.23333 | 22807 ft | 302 kts | 33° |
| 2026-04-30 20:16 | 40.46320 | -74.21579 | 22806 ft | 302 kts | 33° |
| 2026-04-30 20:17 | 40.47951 | -74.19823 | 22803 ft | 302 kts | 34° |
| 2026-04-30 20:17 | 40.49576 | -74.18072 | 22802 ft | 302 kts | 33° |
| 2026-04-30 20:17 | 40.51217 | -74.16303 | 22804 ft | 302 kts | 34° |
| 2026-04-30 20:17 | 40.52837 | -74.14556 | 22805 ft | 302 kts | 33° |
| 2026-04-30 20:18 | 40.54465 | -74.12798 | 22802 ft | 302 kts | 34° |
| 2026-04-30 20:18 | 40.56124 | -74.11006 | 22800 ft | 302 kts | 33° |
| 2026-04-30 20:18 | 40.57771 | -74.09226 | 22803 ft | 302 kts | 34° |
| 2026-04-30 20:18 | 40.59401 | -74.07465 | 22800 ft | 302 kts | 33° |
| 2026-04-30 20:19 | 40.61028 | -74.05704 | 22798 ft | 302 kts | 34° |
| 2026-04-30 20:19 | 40.62639 | -74.03959 | 22802 ft | 302 kts | 34° |
| 2026-04-30 20:19 | 40.64264 | -74.02198 | 22799 ft | 302 kts | 34° |
| 2026-04-30 20:19 | 40.65903 | -74.00421 | 22798 ft | 302 kts | 34° |
| 2026-04-30 20:20 | 40.67513 | -73.98675 | 22802 ft | 302 kts | 34° |
| 2026-04-30 20:20 | 40.69143 | -73.96904 | 22799 ft | 302 kts | 34° |
| 2026-04-30 20:20 | 40.70760 | -73.95148 | 22802 ft | 303 kts | 34° |
| 2026-04-30 20:20 | 40.72392 | -73.93374 | 22804 ft | 303 kts | 34° |
| 2026-04-30 20:21 | 40.74006 | -73.91618 | 22799 ft | 303 kts | 34° |
| 2026-04-30 20:21 | 40.75639 | -73.89840 | 22800 ft | 303 kts | 34° |
| 2026-04-30 20:21 | 40.77268 | -73.88065 | 22800 ft | 303 kts | 34° |
| 2026-04-30 20:21 | 40.78898 | -73.86289 | 22803 ft | 303 kts | 34° |
| 2026-04-30 20:22 | 40.80524 | -73.84515 | 22802 ft | 303 kts | 34° |
| 2026-04-30 20:22 | 40.82145 | -73.82745 | 22805 ft | 303 kts | 34° |
| 2026-04-30 20:22 | 40.83779 | -73.80960 | 22807 ft | 303 kts | 34° |
| 2026-04-30 20:22 | 40.85353 | -73.79125 | 22796 ft | 305 kts | 40° |
| 2026-04-30 20:23 | 40.86807 | -73.77033 | 22804 ft | 307 kts | 47° |
| 2026-04-30 20:23 | 40.88094 | -73.74813 | 22805 ft | 307 kts | 51° |
| 2026-04-30 20:23 | 40.89346 | -73.72503 | 22814 ft | 307 kts | 53° |
| 2026-04-30 20:23 | 40.90572 | -73.70182 | 22814 ft | 308 kts | 53° |
| 2026-04-30 20:24 | 40.91794 | -73.67868 | 22818 ft | 308 kts | 53° |
| 2026-04-30 20:24 | 40.93009 | -73.65571 | 22817 ft | 308 kts | 53° |
| 2026-04-30 20:24 | 40.94241 | -73.63243 | 22820 ft | 308 kts | 53° |
| 2026-04-30 20:24 | 40.95477 | -73.60908 | 22816 ft | 308 kts | 53° |
| 2026-04-30 20:25 | 40.97936 | -73.56259 | 22817 ft | 309 kts | 53° |
| 2026-04-30 20:25 | 40.99167 | -73.53931 | 22818 ft | 308 kts | 53° |
| 2026-04-30 20:26 | 41.01628 | -73.49273 | 22819 ft | 309 kts | 53° |
| 2026-04-30 20:26 | 41.04087 | -73.44612 | 22819 ft | 309 kts | 53° |
| 2026-04-30 20:26 | 41.05306 | -73.42300 | 22814 ft | 309 kts | 53° |
| 2026-04-30 20:27 | 41.07766 | -73.37627 | 22815 ft | 309 kts | 53° |
| 2026-04-30 20:27 | 41.10213 | -73.32971 | 22805 ft | 309 kts | 54° |
| 2026-04-30 20:28 | 41.12683 | -73.28262 | 22802 ft | 307 kts | 54° |
| 2026-04-30 20:28 | 41.15129 | -73.23593 | 22799 ft | 306 kts | 54° |
| 2026-04-30 20:29 | 41.17562 | -73.18941 | 22795 ft | 306 kts | 54° |
| 2026-04-30 20:30 | 41.21187 | -73.12002 | 22800 ft | 306 kts | 54° |
| 2026-04-30 20:30 | 41.24818 | -73.05033 | 22801 ft | 305 kts | 54° |
| 2026-04-30 20:31 | 41.28441 | -72.98064 | 22804 ft | 305 kts | 54° |
| 2026-04-30 20:32 | 41.31835 | -72.90934 | 22797 ft | 305 kts | 60° |
| 2026-04-30 20:32 | 41.33966 | -72.86044 | 22804 ft | 305 kts | 59° |
| 2026-04-30 20:33 | 41.35029 | -72.83634 | 22802 ft | 305 kts | 59° |
| 2026-04-30 20:33 | 41.37188 | -72.78771 | 22801 ft | 304 kts | 59° |
| 2026-04-30 20:33 | 41.38265 | -72.76352 | 22801 ft | 304 kts | 59° |
| 2026-04-30 20:34 | 41.40416 | -72.71528 | 22801 ft | 304 kts | 59° |
| 2026-04-30 20:34 | 41.42565 | -72.66708 | 22803 ft | 303 kts | 59° |
| 2026-04-30 20:35 | 41.43650 | -72.64272 | 22804 ft | 303 kts | 59° |
| 2026-04-30 20:35 | 41.44719 | -72.61872 | 22806 ft | 303 kts | 59° |
| 2026-04-30 20:35 | 41.46874 | -72.57028 | 22809 ft | 303 kts | 59° |
| 2026-04-30 20:36 | 41.47943 | -72.54624 | 22811 ft | 303 kts | 59° |
| 2026-04-30 20:36 | 41.49022 | -72.52195 | 22808 ft | 303 kts | 59° |
| 2026-04-30 20:36 | 41.51168 | -72.47356 | 22806 ft | 304 kts | 59° |
| 2026-04-30 20:37 | 41.52240 | -72.44936 | 22809 ft | 303 kts | 59° |
| 2026-04-30 20:37 | 41.53321 | -72.42494 | 22812 ft | 303 kts | 59° |
| 2026-04-30 20:37 | 41.54395 | -72.40067 | 22810 ft | 304 kts | 59° |
| 2026-04-30 20:37 | 41.55470 | -72.37633 | 22809 ft | 304 kts | 59° |
| 2026-04-30 20:38 | 41.56538 | -72.35216 | 22809 ft | 304 kts | 59° |
| 2026-04-30 20:38 | 41.57540 | -72.32944 | 22799 ft | 303 kts | 60° |
| 2026-04-30 20:38 | 41.58633 | -72.30469 | 22465 ft | 315 kts | 60° |
| 2026-04-30 20:39 | 41.60928 | -72.25266 | 21442 ft | 332 kts | 60° |
| 2026-04-30 20:39 | 41.62101 | -72.22599 | 20928 ft | 333 kts | 60° |
| 2026-04-30 20:39 | 41.63267 | -72.19944 | 20413 ft | 335 kts | 60° |
| 2026-04-30 20:40 | 41.65613 | -72.14595 | 19406 ft | 335 kts | 60° |
| 2026-04-30 20:40 | 41.66779 | -72.11933 | 18905 ft | 334 kts | 60° |
| 2026-04-30 20:40 | 41.67957 | -72.09242 | 18383 ft | 333 kts | 60° |
| 2026-04-30 20:41 | 41.70278 | -72.03931 | 17409 ft | 331 kts | 60° |
| 2026-04-30 20:41 | 41.71431 | -72.01291 | 16931 ft | 330 kts | 60° |
| 2026-04-30 20:41 | 41.72583 | -71.98651 | 16448 ft | 329 kts | 60° |
| 2026-04-30 20:41 | 41.73733 | -71.96012 | 15952 ft | 328 kts | 60° |
| 2026-04-30 20:42 | 41.74883 | -71.93370 | 15483 ft | 326 kts | 60° |
| 2026-04-30 20:42 | 41.76017 | -71.90765 | 14999 ft | 325 kts | 60° |
| 2026-04-30 20:42 | 41.78272 | -71.85574 | 14016 ft | 322 kts | 61° |
| 2026-04-30 20:43 | 41.79402 | -71.82970 | 13523 ft | 321 kts | 60° |
| 2026-04-30 20:43 | 41.80685 | -71.80576 | 13036 ft | 318 kts | 41° |
| 2026-04-30 20:43 | 41.82539 | -71.78999 | 12552 ft | 311 kts | 26° |
| 2026-04-30 20:44 | 41.86335 | -71.76381 | 11583 ft | 306 kts | 24° |
| 2026-04-30 20:44 | 41.88248 | -71.75122 | 11101 ft | 303 kts | 24° |
| 2026-04-30 20:44 | 41.91834 | -71.72749 | 10990 ft | 274 kts | 24° |
| 2026-04-30 20:45 | 41.95235 | -71.70570 | 10992 ft | 270 kts | 20° |
| 2026-04-30 20:45 | 41.96978 | -71.69626 | 10992 ft | 272 kts | 18° |
| 2026-04-30 20:45 | 41.98769 | -71.68710 | 10982 ft | 274 kts | 17° |
| 2026-04-30 20:46 | 42.04129 | -71.65929 | 10989 ft | 276 kts | 18° |
| 2026-04-30 20:46 | 42.05918 | -71.64984 | 10984 ft | 276 kts | 18° |
| 2026-04-30 20:47 | 42.09486 | -71.63090 | 10976 ft | 276 kts | 18° |
| 2026-04-30 20:47 | 42.11304 | -71.62121 | 10993 ft | 276 kts | 19° |
| 2026-04-30 20:48 | 42.14883 | -71.60209 | 10988 ft | 276 kts | 19° |
| 2026-04-30 20:48 | 42.16674 | -71.59250 | 10973 ft | 276 kts | 18° |
| 2026-04-30 20:48 | 42.18452 | -71.58298 | 10987 ft | 275 kts | 18° |
| 2026-04-30 20:48 | 42.20224 | -71.57349 | 10995 ft | 274 kts | 19° |
| 2026-04-30 20:49 | 42.22007 | -71.56393 | 10928 ft | 278 kts | 19° |
| 2026-04-30 20:49 | 42.23860 | -71.55404 | 10559 ft | 290 kts | 18° |
| 2026-04-30 20:49 | 42.25757 | -71.54391 | 10187 ft | 297 kts | 19° |
| 2026-04-30 20:50 | 42.29599 | -71.52320 | 9445 ft | 293 kts | 19° |
| 2026-04-30 20:50 | 42.31482 | -71.51304 | 9066 ft | 288 kts | 19° |
| 2026-04-30 20:50 | 42.33345 | -71.50299 | 8689 ft | 285 kts | 19° |
| 2026-04-30 20:50 | 42.35182 | -71.49307 | 8313 ft | 282 kts | 19° |
| 2026-04-30 20:51 | 42.37002 | -71.48326 | 7937 ft | 280 kts | 19° |
| 2026-04-30 20:51 | 42.40590 | -71.46390 | 7191 ft | 276 kts | 18° |
| 2026-04-30 20:51 | 42.42373 | -71.45427 | 6816 ft | 274 kts | 18° |
| 2026-04-30 20:52 | 42.44133 | -71.44476 | 6441 ft | 272 kts | 18° |
| 2026-04-30 20:52 | 42.45889 | -71.43527 | 6066 ft | 270 kts | 18° |
| 2026-04-30 20:52 | 42.49348 | -71.41654 | 5315 ft | 267 kts | 19° |
| 2026-04-30 20:53 | 42.51062 | -71.40722 | 4937 ft | 260 kts | 19° |
| 2026-04-30 20:53 | 42.52692 | -71.39829 | 4561 ft | 248 kts | 18° |
| 2026-04-30 20:53 | 42.54268 | -71.38976 | 4182 ft | 241 kts | 19° |
| 2026-04-30 20:54 | 42.57316 | -71.37302 | 3424 ft | 233 kts | 22° |
| 2026-04-30 20:54 | 42.58728 | -71.36188 | 3041 ft | 231 kts | 29° |
| 2026-04-30 20:54 | 42.60078 | -71.35020 | 2662 ft | 229 kts | 31° |
| 2026-04-30 20:55 | 42.62569 | -71.32832 | 2484 ft | 206 kts | 30° |
| 2026-04-30 20:55 | 42.63751 | -71.31799 | 2483 ft | 197 kts | 31° |
| 2026-04-30 20:55 | 42.64894 | -71.30801 | 2484 ft | 192 kts | 30° |
| 2026-04-30 20:56 | 42.67363 | -71.30187 | 2493 ft | 183 kts | 343° |
| 2026-04-30 20:56 | 42.68456 | -71.31009 | 2492 ft | 180 kts | 317° |
| 2026-04-30 20:56 | 42.69882 | -71.33782 | 2489 ft | 178 kts | 301° |
| 2026-04-30 20:57 | 42.70540 | -71.35209 | 2487 ft | 178 kts | 302° |
| 2026-04-30 20:57 | 42.71211 | -71.36612 | 2484 ft | 177 kts | 303° |
| 2026-04-30 20:57 | 42.71883 | -71.38010 | 2419 ft | 179 kts | 303° |
| 2026-04-30 20:58 | 42.73201 | -71.40765 | 1922 ft | 161 kts | 303° |
| 2026-04-30 20:58 | 42.73783 | -71.41997 | 1706 ft | 148 kts | 303° |
| 2026-04-30 20:58 | 42.74313 | -71.43115 | 1511 ft | 130 kts | 303° |
| 2026-04-30 20:58 | 42.74750 | -71.44044 | 1347 ft | 103 kts | 305° |
| 2026-04-30 20:59 | 42.75510 | -71.45638 | 1082 ft | 100 kts | 303° |
| 2026-04-30 20:59 | 42.75876 | -71.46413 | 945 ft | 96 kts | 302° |
| 2026-04-30 21:00 | 42.76619 | -71.47981 | 679 ft | 101 kts | 302° |
| 2026-04-30 21:00 | 42.77378 | -71.49586 | 406 ft | 101 kts | 302° |
| 2026-04-30 21:01 | 42.78054 | -71.51015 | 192 ft | 56 kts | 303° |
| 2026-04-30 21:01 | 42.78178 | -71.51276 | 193 ft | 19 kts | 302° |
| 2026-04-30 21:01 | 42.78245 | -71.51556 | 195 ft | 15 kts | 219° |
| 2026-04-30 21:02 | 42.78160 | -71.51632 | 195 ft | 14 kts | 213° |
| 2026-04-30 21:02 | 42.78095 | -71.51563 | 195 ft | 14 kts | 126° |
| 2026-04-30 21:02 | 42.78045 | -71.51526 | 194 ft | 4 kts | 213° |
| 2026-04-30 21:02 | 42.78040 | -71.51530 | 194 ft | 0 kts | 213° |